Time;durP1;ratioP1;P1;durP2;ratioP2;P2;SDS_P1;SDS_P2;PMS_P1;PMS_P2;Temp;Humidity;BMP_temperature;BMP_pressure;BME280_temperature;BME280_humidity;BME280_pressure;Samples;Min_cycle;Max_cycle;Signal;HPM_P1;HPM_P2
2022/10/10 00:01:55;;;;;;;4.73;3.93;;;11.00;99.90;12.30;97518.00;;;;5022879;28;20662;-69
2022/10/10 00:04:46;;;;;;;4.20;3.80;;;11.00;99.90;12.30;97513.00;;;;5028025;28;20210;-68
2022/10/10 00:07:34;;;;;;;5.53;3.83;;;11.00;99.90;12.40;97504.00;;;;5021136;28;20233;-68
2022/10/10 00:10:23;;;;;;;4.73;4.33;;;11.00;99.90;12.40;97510.00;;;;5027146;28;20212;-69
2022/10/10 00:13:12;;;;;;;7.77;4.20;;;11.00;99.90;12.30;97502.00;;;;5027609;28;20272;-69
2022/10/10 00:16:02;;;;;;;7.53;4.10;;;11.00;99.90;12.30;97509.00;;;;5026538;28;20247;-69
2022/10/10 00:18:51;;;;;;;6.10;3.97;;;11.00;99.90;12.30;97510.00;;;;5028708;28;20623;-69
2022/10/10 00:21:41;;;;;;;5.10;4.60;;;10.90;99.90;12.30;97511.00;;;;5024000;28;20709;-68
2022/10/10 00:24:30;;;;;;;4.90;4.47;;;10.90;99.90;12.30;97517.00;;;;5022970;28;20778;-69
2022/10/10 00:27:18;;;;;;;7.47;3.60;;;10.90;99.90;12.30;97502.00;;;;5023855;28;20201;-69
2022/10/10 00:30:10;;;;;;;6.10;3.90;;;10.90;99.90;12.10;97505.00;;;;5020398;28;20224;-69
2022/10/10 00:32:59;;;;;;;5.50;5.00;;;10.90;99.90;12.20;97501.00;;;;5015219;28;20230;-69
2022/10/10 00:35:48;;;;;;;7.03;4.87;;;10.90;99.90;12.10;97513.00;;;;5023415;28;20201;-69
2022/10/10 00:38:38;;;;;;;7.93;3.87;;;10.80;99.90;12.00;97497.00;;;;5020662;28;20586;-69
2022/10/10 00:41:28;;;;;;;5.73;3.93;;;10.80;99.90;11.90;97499.00;;;;5026188;28;20279;-69
2022/10/10 00:44:17;;;;;;;6.43;4.27;;;10.80;99.90;11.80;97500.00;;;;5024078;28;20250;-69
2022/10/10 00:47:05;;;;;;;4.80;4.37;;;10.70;99.90;11.90;97495.00;;;;5020130;28;20276;-69
2022/10/10 00:49:54;;;;;;;5.13;4.57;;;10.70;99.90;11.80;97492.00;;;;5025668;28;20858;-69
2022/10/10 00:52:43;;;;;;;5.60;4.20;;;10.60;99.90;11.80;97489.00;;;;5027701;28;20258;-69
2022/10/10 00:55:33;;;;;;;4.47;3.87;;;10.60;99.90;11.60;97493.00;;;;5028413;28;20619;-69
2022/10/10 00:58:23;;;;;;;15.50;4.67;;;10.50;99.90;11.60;97484.00;;;;5029502;28;20201;-69
2022/10/10 01:01:12;;;;;;;6.23;4.17;;;10.50;99.90;11.60;97488.00;;;;5020031;28;20221;-69
2022/10/10 01:04:02;;;;;;;9.83;4.17;;;10.40;99.90;11.60;97483.00;;;;5029337;28;20221;-69
2022/10/10 01:06:51;;;;;;;11.10;3.67;;;10.40;99.90;11.60;97480.00;;;;5028513;28;20717;-69
2022/10/10 01:09:43;;;;;;;6.33;3.63;;;10.40;99.90;11.60;97483.00;;;;5027234;28;20235;-69
2022/10/10 01:12:48;;;;;;;7.77;4.43;;;10.30;99.90;11.60;97484.00;;;;5028044;28;20213;-69
2022/10/10 01:15:47;;;;;;;6.17;4.27;;;10.30;99.90;11.60;97477.00;;;;5028170;28;20194;-69
2022/10/10 01:18:47;;;;;;;7.30;4.03;;;10.30;99.90;11.50;97477.00;;;;5021544;28;20210;-69
2022/10/10 01:21:46;;;;;;;5.60;3.57;;;10.30;99.90;11.50;97479.00;;;;5016794;28;20222;-69
2022/10/10 01:24:55;;;;;;;4.47;3.90;;;10.30;99.90;11.60;97485.00;;;;5021903;28;20294;-69
2022/10/10 01:27:50;;;;;;;4.77;3.97;;;10.20;99.90;11.30;97480.00;;;;5020337;28;20205;-69
2022/10/10 01:30:41;;;;;;;5.20;4.60;;;10.20;99.90;11.40;97485.00;;;;5026897;28;20683;-69
2022/10/10 01:33:40;;;;;;;5.40;4.17;;;10.20;99.90;11.40;97482.00;;;;5051191;23;20676;-87
2022/10/10 01:36:38;;;;;;;6.80;4.73;;;10.20;99.90;11.50;97471.00;;;;5088820;28;20979;-87
2022/10/10 01:39:37;;;;;;;5.20;4.70;;;10.20;99.90;11.50;97472.00;;;;5071711;28;20238;-87
2022/10/10 01:42:38;;;;;;;12.97;4.30;;;10.20;99.90;11.50;97468.00;;;;5071937;28;20199;-87
2022/10/10 01:45:30;;;;;;;7.43;4.33;;;10.20;99.90;11.40;97474.00;;;;5072550;28;20186;-86
2022/10/10 01:48:24;;;;;;;6.03;3.67;;;10.20;99.90;11.30;97471.00;;;;5083636;28;20608;-86
2022/10/10 01:51:34;;;;;;;4.70;4.30;;;10.20;99.90;11.30;97482.00;;;;5081831;28;20694;-86
2022/10/10 01:54:42;;;;;;;5.57;4.30;;;10.10;99.90;11.40;97468.00;;;;5084624;28;20195;-86
2022/10/10 01:57:40;;;;;;;4.00;3.57;;;10.10;99.90;11.40;97467.00;;;;5081802;28;20211;-87
2022/10/10 02:00:36;;;;;;;5.47;3.97;;;10.10;99.90;11.50;97463.00;;;;5077529;28;20674;-87
2022/10/10 02:03:30;;;;;;;6.37;3.93;;;10.20;99.90;11.40;97469.00;;;;5071175;28;20196;-87
2022/10/10 02:06:27;;;;;;;7.13;3.87;;;10.20;99.90;11.40;97468.00;;;;5077294;28;20215;-87
2022/10/10 02:09:22;;;;;;;8.87;4.50;;;10.20;99.90;11.40;97472.00;;;;5082143;28;20237;-87
2022/10/10 02:12:12;;;;;;;5.60;4.10;;;10.20;99.90;11.50;97477.00;;;;5083591;28;20233;-87
2022/10/10 02:15:08;;;;;;;6.43;4.53;;;10.10;99.90;11.40;97464.00;;;;5070714;28;20218;-86
2022/10/10 02:17:58;;;;;;;4.67;4.00;;;10.10;99.90;11.30;97471.00;;;;5070163;28;20232;-87
2022/10/10 02:20:50;;;;;;;6.10;3.47;;;10.10;99.90;11.50;97463.00;;;;5075722;28;20630;-86
2022/10/10 02:23:41;;;;;;;4.13;3.73;;;10.10;99.90;11.50;97464.00;;;;5080466;28;20734;-87
2022/10/10 02:26:32;;;;;;;8.20;4.33;;;10.10;99.90;11.40;97459.00;;;;5081115;28;20200;-87
2022/10/10 02:29:27;;;;;;;7.40;4.90;;;10.10;99.90;11.40;97458.00;;;;5083935;28;20721;-85
2022/10/10 02:32:22;;;;;;;5.67;4.37;;;10.10;99.90;11.50;97463.00;;;;5072379;28;20703;-86
2022/10/10 02:35:16;;;;;;;8.73;4.93;;;10.20;99.90;11.50;97457.00;;;;5071719;28;20196;-86
2022/10/10 02:38:09;;;;;;;6.53;4.30;;;10.20;99.90;11.40;97453.00;;;;5070282;28;20273;-86
2022/10/10 02:41:02;;;;;;;7.93;3.90;;;10.20;99.90;11.50;97456.00;;;;5071324;28;20270;-86
2022/10/10 02:43:52;;;;;;;5.73;3.63;;;10.20;99.90;11.50;97458.00;;;;5070855;28;20684;-87
2022/10/10 02:46:41;;;;;;;6.63;4.70;;;10.20;99.90;11.60;97447.00;;;;5071079;28;20249;-86
2022/10/10 02:49:33;;;;;;;5.00;4.50;;;10.20;99.90;11.50;97455.00;;;;5069473;28;20219;-86
2022/10/10 02:52:21;;;;;;;6.63;3.73;;;10.20;99.90;11.40;97450.00;;;;5078719;28;20742;-87
2022/10/10 02:55:12;;;;;;;5.47;4.17;;;10.20;99.90;11.40;97447.00;;;;5080499;28;20199;-87
2022/10/10 02:58:00;;;;;;;4.50;4.10;;;10.20;99.90;11.30;97452.00;;;;5081258;28;20226;-87
2022/10/10 03:00:49;;;;;;;4.80;4.37;;;10.20;99.90;11.30;97448.00;;;;5072465;28;20232;-87
2022/10/10 03:03:38;;;;;;;6.03;4.17;;;10.10;99.90;11.10;97444.00;;;;5075264;28;20665;-87
2022/10/10 03:06:26;;;;;;;6.83;4.60;;;10.10;99.90;11.20;97442.00;;;;5071038;28;20685;-86
2022/10/10 03:09:15;;;;;;;7.33;4.33;;;10.10;99.90;11.00;97446.00;;;;5069981;28;20265;-86
2022/10/10 03:12:06;;;;;;;5.20;4.70;;;10.00;99.90;11.00;97444.00;;;;5067526;28;20466;-87
2022/10/10 03:14:54;;;;;;;7.13;3.87;;;10.00;99.90;11.00;97448.00;;;;5075856;28;20203;-86
2022/10/10 03:17:43;;;;;;;12.93;4.97;;;9.90;99.90;11.10;97452.00;;;;5073497;28;20216;-87
2022/10/10 03:20:32;;;;;;;5.83;4.40;;;9.90;99.90;11.20;97452.00;;;;5075563;28;20214;-87
2022/10/10 03:23:21;;;;;;;4.47;4.00;;;10.00;99.90;11.10;97444.00;;;;5070190;28;20203;-87
2022/10/10 03:26:10;;;;;;;5.63;3.90;;;10.00;99.90;11.00;97448.00;;;;5071775;28;20695;-87
2022/10/10 03:29:02;;;;;;;4.20;3.80;;;9.90;99.90;11.00;97449.00;;;;5068531;28;20242;-88
2022/10/10 03:31:51;;;;;;;7.70;4.47;;;9.90;99.90;11.00;97441.00;;;;5073992;28;20252;-87
2022/10/10 03:34:39;;;;;;;5.40;4.27;;;9.90;99.90;11.10;97451.00;;;;5085346;28;20199;-86
2022/10/10 03:37:28;;;;;;;8.37;4.83;;;9.90;99.90;11.10;97450.00;;;;5079795;28;20346;-87
2022/10/10 03:40:17;;;;;;;5.50;4.07;;;9.90;99.90;11.20;97443.00;;;;5069800;28;20207;-86
2022/10/10 03:43:05;;;;;;;5.17;4.20;;;9.90;99.90;11.20;97443.00;;;;5074623;28;20215;-87
2022/10/10 03:45:55;;;;;;;10.90;3.87;;;9.90;99.90;10.90;97441.00;;;;5074831;28;20199;-87
2022/10/10 03:48:44;;;;;;;7.27;6.40;;;9.90;99.90;11.00;97430.00;;;;5070314;28;20299;-87
2022/10/10 03:51:33;;;;;;;4.30;3.80;;;9.90;99.90;11.10;97439.00;;;;5074209;28;20741;-86
2022/10/10 03:54:22;;;;;;;5.27;4.43;;;9.90;99.90;11.10;97440.00;;;;5076366;28;20196;-87
2022/10/10 03:57:10;;;;;;;3.90;3.50;;;9.90;99.90;11.10;97441.00;;;;5075164;28;20444;-87
2022/10/10 03:59:59;;;;;;;4.87;4.43;;;10.00;99.90;11.20;97437.00;;;;5069997;28;20211;-87
2022/10/10 04:02:49;;;;;;;4.70;4.17;;;10.00;99.90;11.20;97447.00;;;;5075762;28;20200;-87
2022/10/10 04:05:39;;;;;;;5.07;4.57;;;10.00;99.90;11.30;97440.00;;;;5071703;28;20268;-87
2022/10/10 04:08:28;;;;;;;5.00;4.10;;;10.00;99.90;11.30;97441.00;;;;5082021;28;20695;-87
2022/10/10 04:11:17;;;;;;;5.43;4.10;;;10.00;99.90;11.50;97438.00;;;;5089608;28;20230;-87
2022/10/10 04:14:06;;;;;;;4.23;3.70;;;10.10;99.90;11.60;97436.00;;;;5073234;28;20208;-87
2022/10/10 04:16:55;;;;;;;6.53;4.37;;;10.10;99.90;11.60;97432.00;;;;5082197;28;20711;-86
2022/10/10 04:19:46;;;;;;;8.67;4.23;;;10.10;99.90;11.50;97436.00;;;;5089969;28;20633;-86
2022/10/10 04:22:35;;;;;;;7.87;4.20;;;10.20;99.90;11.50;97430.00;;;;5075381;28;20203;-88
2022/10/10 04:25:24;;;;;;;5.40;4.87;;;10.20;99.90;11.60;97428.00;;;;5090274;28;20199;-88
2022/10/10 04:28:13;;;;;;;9.00;4.47;;;10.30;99.90;11.70;97426.00;;;;5088289;28;20823;-86
2022/10/10 04:31:02;;;;;;;6.97;4.60;;;10.30;99.90;11.60;97425.00;;;;5089389;28;20226;-86
2022/10/10 04:33:51;;;;;;;17.57;4.37;;;10.30;99.90;11.60;97423.00;;;;5089948;28;20253;-87
2022/10/10 04:36:41;;;;;;;4.90;4.47;;;10.30;99.90;11.40;97421.00;;;;5085348;28;20218;-87
2022/10/10 04:39:30;;;;;;;4.60;3.97;;;10.30;99.90;11.50;97427.00;;;;5078971;28;20792;-87
2022/10/10 04:42:19;;;;;;;5.57;3.80;;;10.30;99.90;11.20;97437.00;;;;5084490;28;20199;-87
2022/10/10 04:45:17;;;;;;;4.03;3.63;;;10.20;99.90;11.20;97440.00;;;;5082346;28;20212;-86
2022/10/10 04:48:05;;;;;;;6.27;4.50;;;10.20;99.90;11.30;97434.00;;;;5081627;28;20222;-86
2022/10/10 04:50:57;;;;;;;5.63;3.70;;;10.20;99.90;11.40;97432.00;;;;5078855;28;20315;-87
2022/10/10 04:53:47;;;;;;;4.30;3.90;;;10.10;99.90;11.50;97424.00;;;;5077067;28;20626;-87
2022/10/10 04:56:39;;;;;;;5.03;4.53;;;10.20;99.90;11.60;97431.00;;;;5079048;28;20571;-86
2022/10/10 04:59:28;;;;;;;8.23;4.43;;;10.20;99.90;11.60;97424.00;;;;5074156;22;20252;-64
2022/10/10 05:02:17;;;;;;;5.23;3.87;;;10.20;99.90;11.50;97422.00;;;;5047129;28;20577;-64
2022/10/10 05:05:07;;;;;;;6.57;4.57;;;10.20;99.90;11.50;97428.00;;;;5048475;28;20254;-64
2022/10/10 05:07:56;;;;;;;8.77;4.77;;;10.20;99.90;11.50;97425.00;;;;5048469;28;20604;-64
2022/10/10 05:10:47;;;;;;;5.57;4.60;;;10.30;99.90;11.40;97425.00;;;;5046981;28;20764;-65
2022/10/10 05:13:36;;;;;;;6.20;4.40;;;10.20;99.90;11.50;97426.00;;;;5038282;28;20651;-65
2022/10/10 05:16:25;;;;;;;5.70;4.30;;;10.30;99.90;11.60;97424.00;;;;5049887;28;20196;-65
2022/10/10 05:19:14;;;;;;;6.67;4.30;;;10.30;99.90;11.40;97425.00;;;;5049818;28;20254;-65
2022/10/10 05:22:02;;;;;;;8.57;5.37;;;10.30;99.90;11.40;97428.00;;;;5050399;28;20200;-65
2022/10/10 05:24:51;;;;;;;6.13;4.73;;;10.20;99.90;11.40;97424.00;;;;5052022;28;20228;-64
2022/10/10 05:27:41;;;;;;;10.90;5.10;;;11.10;99.90;11.30;97425.00;;;;5055698;28;20250;-65
2022/10/10 05:30:30;;;;;;;6.10;3.87;;;10.20;99.90;11.30;97432.00;;;;5058414;28;20684;-65
2022/10/10 05:33:18;;;;;;;5.80;4.33;;;10.20;99.90;11.50;97432.00;;;;5054321;28;20224;-64
2022/10/10 05:36:10;;;;;;;9.33;5.23;;;10.20;99.90;11.60;97425.00;;;;5051726;28;20200;-63
2022/10/10 05:39:00;;;;;;;6.97;4.10;;;10.20;99.90;11.60;97426.00;;;;5053345;28;20734;-65
2022/10/10 05:41:49;;;;;;;4.60;4.10;;;10.30;99.90;11.70;97431.00;;;;5056986;28;20567;-64
2022/10/10 05:44:39;;;;;;;5.33;4.20;;;10.30;99.90;11.70;97444.00;;;;5055150;28;20220;-65
2022/10/10 05:47:28;;;;;;;4.17;3.87;;;10.30;99.90;11.60;97431.00;;;;5051401;28;20279;-65
2022/10/10 05:50:30;;;;;;;6.03;4.00;;;10.30;99.90;11.50;97436.00;;;;5047467;28;20197;-65
2022/10/10 05:53:19;;;;;;;7.13;3.67;;;10.40;99.90;11.50;97424.00;;;;5045415;28;20742;-65
2022/10/10 05:56:08;;;;;;;7.37;3.63;;;10.40;99.90;11.50;97436.00;;;;5040758;28;20719;-64
2022/10/10 05:58:57;;;;;;;8.40;4.43;;;10.30;99.90;11.40;97431.00;;;;5048448;28;20603;-65
2022/10/10 06:01:47;;;;;;;4.10;3.63;;;10.30;99.90;11.50;97436.00;;;;5049299;28;20224;-63
2022/10/10 06:04:36;;;;;;;13.30;4.47;;;10.30;99.90;11.50;97423.00;;;;5039979;28;20695;-63
2022/10/10 06:07:24;;;;;;;4.50;4.10;;;10.30;99.90;11.50;97432.00;;;;5046837;28;20684;-64
2022/10/10 06:10:19;;;;;;;7.50;4.57;;;10.30;99.90;11.50;97433.00;;;;5047467;28;20193;-64
2022/10/10 06:13:08;;;;;;;4.47;3.33;;;10.30;99.90;11.60;97434.00;;;;5049919;28;20224;-64
2022/10/10 06:15:57;;;;;;;6.20;3.87;;;10.30;99.90;11.70;97439.00;;;;5047801;28;20254;-64
2022/10/10 06:18:47;;;;;;;5.27;4.77;;;10.30;99.90;11.90;97445.00;;;;5048475;28;20209;-64
2022/10/10 06:21:36;;;;;;;9.10;3.63;;;10.50;99.90;12.00;97444.00;;;;5041006;28;20220;-65
2022/10/10 06:24:24;;;;;;;4.47;4.07;;;10.50;99.90;12.00;97448.00;;;;5048513;28;20220;-64
2022/10/10 06:27:13;;;;;;;4.47;4.07;;;10.60;99.90;12.00;97435.00;;;;5040482;28;20266;-65
2022/10/10 06:30:02;;;;;;;5.13;3.60;;;10.60;99.90;12.10;97447.00;;;;5045438;28;20223;-65
2022/10/10 06:32:51;;;;;;;10.80;4.67;;;10.70;99.90;12.10;97443.00;;;;5044880;28;20209;-64
2022/10/10 06:35:45;;;;;;;7.83;3.93;;;10.70;99.90;12.10;97449.00;;;;5046464;28;20193;-65
2022/10/10 06:38:37;;;;;;;8.60;4.13;;;10.80;99.90;12.20;97443.00;;;;5047596;28;20568;-65
2022/10/10 06:41:25;;;;;;;6.87;4.70;;;10.80;99.90;12.20;97455.00;;;;5048976;28;20309;-65
2022/10/10 06:44:14;;;;;;;5.53;4.20;;;10.90;99.90;12.30;97448.00;;;;5048928;28;20247;-65
2022/10/10 06:47:03;;;;;;;7.00;4.10;;;10.90;99.90;12.50;97448.00;;;;5037235;28;20200;-64
2022/10/10 06:49:51;;;;;;;8.20;4.60;;;11.00;99.90;12.50;97450.00;;;;5048816;28;20200;-65
2022/10/10 06:52:42;;;;;;;8.37;4.87;;;11.00;99.90;12.70;97453.00;;;;5043085;28;20205;-63
2022/10/10 06:55:31;;;;;;;6.60;5.10;;;11.10;99.90;12.80;97450.00;;;;5048255;28;20259;-63
2022/10/10 06:58:19;;;;;;;4.50;4.10;;;11.20;99.90;12.80;97452.00;;;;5046029;28;20201;-64
2022/10/10 07:01:09;;;;;;;5.27;4.27;;;11.20;99.90;12.90;97453.00;;;;5049521;28;20308;-63
2022/10/10 07:03:58;;;;;;;8.30;4.17;;;11.30;99.90;13.00;97455.00;;;;5047243;28;20220;-64
2022/10/10 07:06:47;;;;;;;4.80;4.20;;;11.40;99.90;13.00;97454.00;;;;5040422;28;20200;-63
2022/10/10 07:09:37;;;;;;;7.70;4.07;;;11.40;99.90;13.00;97458.00;;;;5048957;28;20196;-64
2022/10/10 07:12:25;;;;;;;10.70;3.77;;;11.50;99.90;13.20;97462.00;;;;5048894;28;20309;-63
2022/10/10 07:15:16;;;;;;;6.87;3.60;;;11.60;99.90;13.20;97463.00;;;;5049264;28;20208;-63
2022/10/10 07:18:05;;;;;;;5.20;3.80;;;11.60;99.90;13.30;97466.00;;;;5044760;28;20311;-63
2022/10/10 07:20:56;;;;;;;6.13;3.80;;;11.70;99.90;13.20;97462.00;;;;5044778;28;20232;-64
2022/10/10 07:23:45;;;;;;;5.60;3.23;;;11.80;99.90;13.20;97471.00;;;;5048128;28;20906;-63
2022/10/10 07:26:37;;;;;;;5.60;3.30;;;11.80;99.90;13.40;97462.00;;;;5047046;28;20192;-63
2022/10/10 07:29:27;;;;;;;8.20;3.67;;;11.80;99.90;13.50;97467.00;;;;5039477;28;20242;-63
2022/10/10 07:32:15;;;;;;;4.13;3.33;;;11.90;99.90;13.60;97467.00;;;;5048771;28;20205;-63
2022/10/10 07:35:05;;;;;;;4.47;4.07;;;12.00;99.90;13.80;97473.00;;;;5103595;23;20312;-68
2022/10/10 07:37:55;;;;;;;3.50;3.20;;;12.10;99.90;13.80;97472.00;;;;5081985;28;20717;-69
2022/10/10 07:40:44;;;;;;;4.03;3.63;;;12.10;99.90;13.90;97474.00;;;;5083721;28;20290;-68
2022/10/10 07:43:34;;;;;;;6.47;4.00;;;12.20;99.90;13.80;97473.00;;;;5088740;28;20647;-69
2022/10/10 07:46:22;;;;;;;4.87;4.43;;;12.20;99.90;13.80;97470.00;;;;5084644;28;20281;-68
2022/10/10 07:49:12;;;;;;;4.97;3.90;;;12.30;99.90;13.80;97476.00;;;;5085884;28;20223;-67
2022/10/10 07:52:00;;;;;;;5.13;4.30;;;12.30;99.90;13.90;97471.00;;;;5087092;28;20254;-68
2022/10/10 07:54:49;;;;;;;11.20;4.23;;;12.40;99.90;14.10;97469.00;;;;5085945;28;20215;-69
2022/10/10 07:57:38;;;;;;;5.70;4.27;;;12.40;99.90;14.10;97475.00;;;;5098170;28;20283;-69
2022/10/10 08:00:28;;;;;;;7.50;4.47;;;12.50;99.90;14.30;97468.00;;;;5092044;28;20195;-68
2022/10/10 08:03:17;;;;;;;4.70;4.30;;;12.50;99.90;14.20;97474.00;;;;5081963;28;20330;-68
2022/10/10 08:06:08;;;;;;;11.90;3.47;;;12.50;99.90;14.40;97474.00;;;;5091724;28;20361;-69
2022/10/10 08:08:57;;;;;;;5.80;4.30;;;12.60;99.90;14.50;97476.00;;;;5088264;28;20248;-67
2022/10/10 08:11:45;;;;;;;5.50;3.87;;;12.70;99.90;14.50;97483.00;;;;5073777;28;20200;-68
2022/10/10 08:14:34;;;;;;;9.97;4.90;;;13.70;99.90;14.50;97475.00;;;;5081135;28;20716;-68
2022/10/10 08:17:24;;;;;;;6.37;5.00;;;12.80;99.90;14.80;97473.00;;;;5088235;28;20192;-68
2022/10/10 08:20:13;;;;;;;4.43;4.03;;;12.90;99.90;14.90;97478.00;;;;5089456;28;20208;-68
2022/10/10 08:23:02;;;;;;;8.77;3.90;;;13.00;99.90;14.80;97468.00;;;;5098197;28;20229;-67
2022/10/10 08:25:50;;;;;;;5.03;3.80;;;13.10;99.90;15.00;97464.00;;;;5093032;28;20206;-68
2022/10/10 08:28:40;;;;;;;5.00;3.93;;;13.30;99.90;15.50;97462.00;;;;5072086;28;20196;-67
2022/10/10 08:31:29;;;;;;;3.27;2.97;;;13.40;99.90;15.70;97458.00;;;;5090862;28;20706;-67
2022/10/10 08:34:20;;;;;;;6.30;3.33;;;13.60;99.90;15.90;97468.00;;;;5095354;28;20300;-67
2022/10/10 08:37:08;;;;;;;6.17;3.57;;;13.80;99.90;15.70;97467.00;;;;5081909;28;20664;-68
2022/10/10 08:39:57;;;;;;;5.73;3.70;;;14.00;99.90;15.90;97466.00;;;;5098006;28;20229;-68
2022/10/10 08:42:51;;;;;;;8.87;3.17;;;14.00;99.90;16.00;97467.00;;;;5095226;28;20214;-68
2022/10/10 08:45:40;;;;;;;4.63;3.40;;;14.10;99.90;16.00;97463.00;;;;5078383;28;20195;-67
2022/10/10 08:48:31;;;;;;;4.87;2.83;;;14.20;99.90;15.80;97466.00;;;;5098148;28;20690;-68
2022/10/10 08:51:29;;;;;;;4.83;2.93;;;14.20;99.90;15.60;97461.00;;;;5091721;28;20194;-69
2022/10/10 08:54:19;;;;;;;6.07;2.60;;;14.20;99.90;15.60;97460.00;;;;5080452;28;20227;-67
2022/10/10 08:57:28;;;;;;;3.80;3.00;;;14.20;99.90;15.80;97461.00;;;;5093329;28;20725;-69
2022/10/10 09:00:22;;;;;;;5.80;3.60;;;14.20;99.90;15.80;97463.00;;;;5091363;28;20689;-69
2022/10/10 09:03:20;;;;;;;4.10;3.00;;;14.20;99.90;16.00;97462.00;;;;5083103;28;20281;-67
2022/10/10 09:06:34;;;;;;;3.10;2.77;;;14.30;99.90;16.10;97446.00;;;;5096559;28;20277;-67
2022/10/10 09:09:35;;;;;;;2.70;2.30;;;14.30;99.90;15.90;97448.00;;;;5081515;28;20199;-67
2022/10/10 09:12:34;;;;;;;3.80;2.33;;;14.40;99.90;15.90;97453.00;;;;5080351;28;20214;-69
2022/10/10 09:15:28;;;;;;;5.10;2.63;;;14.40;99.90;16.20;97442.00;;;;5099827;28;20230;-69
2022/10/10 09:18:32;;;;;;;6.37;2.73;;;14.50;99.90;16.60;97443.00;;;;5091805;28;20268;-68
2022/10/10 09:21:28;;;;;;;3.57;2.47;;;14.60;99.90;16.80;97441.00;;;;5096990;28;20217;-69
2022/10/10 09:24:22;;;;;;;6.00;3.47;;;14.80;99.90;17.20;97444.00;;;;5097080;28;20803;-69
2022/10/10 09:27:16;;;;;;;3.83;3.47;;;15.00;99.90;17.50;97446.00;;;;5084001;28;20694;-69
2022/10/10 09:30:14;;;;;;;3.77;2.70;;;15.30;99.90;17.60;97439.00;;;;5073948;28;20330;-69
2022/10/10 09:33:13;;;;;;;3.43;2.53;;;15.50;99.90;17.20;97432.00;;;;5084388;28;20191;-69
2022/10/10 09:36:07;;;;;;;4.83;3.03;;;15.60;99.90;17.90;97422.00;;;;5080497;28;20271;-69
2022/10/10 09:39:01;;;;;;;4.40;2.67;;;15.80;99.90;18.30;97416.00;;;;5082787;28;20203;-69
2022/10/10 09:41:57;;;;;;;6.53;3.17;;;16.10;99.90;18.20;97422.00;;;;5092970;28;20308;-69
2022/10/10 09:44:46;;;;;;;5.60;3.07;;;16.30;99.90;18.00;97418.00;;;;5081938;28;20218;-69
2022/10/10 09:47:35;;;;;;;3.40;2.97;;;16.40;99.90;18.60;97422.00;;;;5091003;28;20202;-68
2022/10/10 09:50:24;;;;;;;6.83;2.67;;;16.50;99.90;18.60;97409.00;;;;5081746;28;20199;-69
2022/10/10 09:53:15;;;;;;;3.17;2.90;;;16.70;99.90;18.90;97404.00;;;;5083592;28;20807;-69
2022/10/10 09:56:06;;;;;;;5.37;2.90;;;16.80;99.90;19.40;97402.00;;;;5081775;28;20675;-69
2022/10/10 09:58:56;;;;;;;6.67;3.20;;;17.10;99.90;19.80;97398.00;;;;5076454;28;20724;-69
2022/10/10 10:02:02;;;;;;;5.57;3.13;;;17.40;99.90;19.70;97392.00;;;;5081544;28;20203;-69
2022/10/10 10:04:52;;;;;;;3.07;2.33;;;17.60;99.90;20.00;97408.00;;;;5090621;28;20257;-69
2022/10/10 10:07:48;;;;;;;5.47;2.80;;;17.70;99.90;19.60;97402.00;;;;5081108;28;20204;-69
2022/10/10 10:10:37;;;;;;;6.63;2.93;;;17.90;99.90;19.40;97396.00;;;;5086088;28;20202;-68
2022/10/10 10:13:31;;;;;;;3.63;2.53;;;17.90;99.90;20.00;97388.00;;;;5084049;28;20224;-69
2022/10/10 10:16:20;;;;;;;3.00;2.37;;;18.00;99.90;20.50;97394.00;;;;5080959;28;20375;-69
2022/10/10 10:19:31;;;;;;;5.43;2.90;;;18.20;99.90;20.40;97396.00;;;;5081036;28;20196;-69
2022/10/10 10:22:33;;;;;;;4.70;3.37;;;18.30;99.90;20.00;97390.00;;;;5099935;28;20200;-69
2022/10/10 10:25:31;;;;;;;5.97;3.43;;;18.40;99.90;20.30;97382.00;;;;5088614;28;20218;-69
2022/10/10 10:28:22;;;;;;;6.57;2.70;;;18.50;99.90;20.80;97382.00;;;;5085772;28;20210;-69
2022/10/10 10:31:30;;;;;;;7.07;2.73;;;18.70;99.90;21.20;97377.00;;;;5076640;28;20199;-68
2022/10/10 10:34:50;;;;;;;4.97;3.17;;;19.00;99.90;21.40;97366.00;;;;5083893;28;20234;-68
2022/10/10 10:37:55;;;;;;;6.60;3.47;;;19.30;99.90;20.90;97375.00;;;;5081093;28;20226;-68
2022/10/10 10:40:54;;;;;;;4.33;3.93;;;20.10;99.90;21.90;97371.00;;;;5083265;28;20214;-68
2022/10/10 10:44:19;;;;;;;5.53;4.23;;;19.80;99.90;22.40;97367.00;;;;5083991;28;20624;-68
2022/10/10 10:47:26;;;;;;;6.80;4.40;;;20.10;99.90;22.20;97360.00;;;;5084716;28;20206;-68
2022/10/10 10:50:43;;;;;;;6.30;4.87;;;20.40;99.90;22.00;97359.00;;;;5085291;28;20195;-68
2022/10/10 10:53:41;;;;;;;5.93;4.07;;;20.40;99.90;23.00;97363.00;;;;5088427;28;20230;-68
2022/10/10 10:56:40;;;;;;;7.90;4.57;;;20.70;99.90;22.40;97352.00;;;;5096643;28;20210;-68
2022/10/10 10:59:45;;;;;;;4.63;4.20;;;21.80;99.90;22.50;97363.00;;;;5080822;28;20696;-68
2022/10/10 11:02:51;;;;;;;5.60;4.10;;;20.90;98.70;23.00;97344.00;;;;5078348;28;20208;-68
2022/10/10 11:05:52;;;;;;;8.73;4.17;;;21.00;99.00;23.40;97338.00;;;;5091288;28;20817;-68
2022/10/10 11:08:55;;;;;;;4.10;3.23;;;21.30;98.00;23.70;97348.00;;;;5072526;28;20192;-69
2022/10/10 11:12:06;;;;;;;3.57;3.27;;;21.50;97.30;24.30;97347.00;;;;5075526;28;20203;-69
2022/10/10 11:15:01;;;;;;;4.97;3.63;;;21.70;98.10;24.40;97346.00;;;;5083598;28;20285;-69
2022/10/10 11:17:58;;;;;;;3.73;3.43;;;22.00;96.70;24.40;97342.00;;;;5079191;28;20295;-69
2022/10/10 11:20:54;;;;;;;6.07;3.40;;;22.30;95.90;24.20;97339.00;;;;5069666;28;20213;-68
2022/10/10 11:23:50;;;;;;;5.13;4.07;;;22.40;95.60;24.00;97327.00;;;;5071659;28;20263;-69
2022/10/10 11:26:43;;;;;;;6.87;4.77;;;22.40;95.30;24.30;97329.00;;;;5081624;28;20227;-68
2022/10/10 11:29:49;;;;;;;4.33;3.70;;;22.40;95.80;24.40;97322.00;;;;5077872;28;20203;-68
2022/10/10 11:32:48;;;;;;;5.30;3.73;;;22.40;95.20;25.20;97314.00;;;;5068508;28;20291;-68
2022/10/10 11:35:44;;;;;;;5.23;3.77;;;22.70;95.30;24.80;97307.00;;;;5085505;28;20307;-67
2022/10/10 11:38:40;;;;;;;8.43;4.13;;;22.90;93.70;25.30;97304.00;;;;5080141;28;20234;-67
2022/10/10 11:41:35;;;;;;;6.63;3.77;;;23.20;93.50;24.80;97305.00;;;;5082445;28;20255;-67
2022/10/10 11:44:31;;;;;;;7.23;4.63;;;23.30;92.30;25.80;97308.00;;;;5085308;28;20219;-69
2022/10/10 11:47:27;;;;;;;3.93;3.57;;;23.50;92.70;25.80;97300.00;;;;5088600;28;20728;-67
2022/10/10 11:50:21;;;;;;;5.17;4.37;;;23.70;91.70;25.60;97300.00;;;;5084063;28;20232;-67
2022/10/10 11:53:21;;;;;;;4.57;4.07;;;23.80;91.00;25.20;97297.00;;;;5082936;28;20218;-67
2022/10/10 11:56:18;;;;;;;5.23;3.90;;;23.80;90.50;24.30;97295.00;;;;5078703;28;20657;-69
2022/10/10 11:59:15;;;;;;;9.33;3.80;;;23.60;90.00;24.90;97287.00;;;;5090377;28;20209;-68
2022/10/10 12:02:18;;;;;;;6.23;3.63;;;23.60;90.30;26.50;97287.00;;;;5086345;28;20203;-67
2022/10/10 12:05:19;;;;;;;6.90;4.37;;;24.00;90.60;25.90;97281.00;;;;5083288;28;20245;-67
2022/10/10 12:08:19;;;;;;;5.87;3.80;;;24.20;87.50;25.50;97288.00;;;;5080232;28;20305;-67
2022/10/10 12:11:17;;;;;;;10.20;4.07;;;24.10;87.50;26.80;97265.00;;;;5081502;28;20201;-67
2022/10/10 12:14:10;;;;;;;6.37;4.30;;;24.30;89.30;27.50;97263.00;;;;5085587;28;20283;-67
2022/10/10 12:16:59;;;;;;;6.80;3.75;;;24.90;89.70;25.80;97257.00;;;;5077252;28;20719;-67
2022/10/10 12:19:50;;;;;;;5.93;4.87;;;25.10;83.40;25.30;97245.00;;;;5076684;28;20196;-68
2022/10/10 12:22:39;;;;;;;4.13;3.43;;;25.10;80.90;25.10;97269.00;;;;5077453;28;20206;-68
2022/10/10 12:25:41;;;;;;;7.33;4.30;;;23.40;82.80;25.80;97284.00;;;;5078610;28;20204;-67
2022/10/10 12:28:36;;;;;;;7.00;5.30;;;24.30;85.50;25.80;97260.00;;;;5083405;28;20199;-68
2022/10/10 12:31:36;;;;;;;6.83;3.67;;;24.20;85.10;27.00;97262.00;;;;5077045;28;20204;-68
2022/10/10 12:34:56;;;;;;;4.43;3.57;;;24.40;86.40;27.10;97233.00;;;;5077156;28;20313;-68
2022/10/10 12:38:17;;;;;;;4.10;3.13;;;24.80;83.50;26.20;97242.00;;;;5074111;28;20222;-67
2022/10/10 12:41:13;;;;;;;4.37;3.43;;;25.00;82.10;24.40;97218.00;;;;5080441;28;20329;-69
2022/10/10 12:44:25;;;;;;;4.40;3.93;;;24.90;79.90;25.20;97210.00;;;;5082790;28;20286;-68
2022/10/10 12:47:41;;;;;;;3.83;3.53;;;24.70;81.70;25.50;97221.00;;;;5078303;28;20203;-68
2022/10/10 12:50:57;;;;;;;4.70;4.30;;;24.40;82.20;24.60;97232.00;;;;5081691;28;20201;-68